createdAt,value
2023-04-18T10:51:46.655Z,57.1628
2023-04-18T10:52:48.288Z,61.7968
2023-04-18T10:53:50.727Z,62.6090
2023-04-18T10:54:51.564Z,61.8204
2023-04-18T10:55:54.217Z,60.9537
2023-04-18T10:56:54.841Z,60.5537
2023-04-18T10:57:57.577Z,60.4442
2023-04-18T10:58:58.199Z,60.5107
2023-04-18T10:59:59.769Z,60.6715
2023-04-18T11:01:01.646Z,60.5741
2023-04-18T11:02:03.162Z,60.6855
2023-04-18T11:03:05.613Z,60.8424
2023-04-18T11:04:06.405Z,60.9438
2023-04-18T11:05:08.049Z,61.8821
2023-04-18T11:06:09.664Z,62.2091
2023-04-18T11:07:11.407Z,62.7992
2023-04-18T11:08:13.050Z,62.8657
2023-04-18T11:09:14.642Z,63.4271
2023-04-18T11:10:16.202Z,63.3116
2023-04-18T11:11:17.920Z,63.1329
2023-04-18T11:12:19.858Z,62.2938
2023-04-18T11:13:21.857Z,60.7966
2023-04-18T11:14:22.912Z,59.7429
2023-04-18T11:15:24.583Z,58.0595
2023-04-18T11:16:26.300Z,55.5781
2023-04-18T11:17:27.927Z,55.0336
2023-04-18T11:18:29.581Z,54.8616
2023-04-18T11:19:31.206Z,55.0677
2023-04-18T11:20:32.838Z,55.1473
2023-04-18T11:21:34.454Z,55.6521
2023-04-18T11:22:36.831Z,56.1834
2023-04-18T11:23:37.742Z,56.6731
2023-04-18T11:24:39.456Z,57.7639
2023-04-18T11:25:41.003Z,57.7711
2023-04-18T11:26:42.792Z,57.1622
2023-04-18T11:27:44.408Z,55.8674
2023-04-18T11:28:46.035Z,55.0291
2023-04-18T11:29:47.698Z,53.7525
2023-04-18T11:30:49.374Z,52.3337
2023-04-18T11:31:51.038Z,52.2146
2023-04-18T11:32:52.708Z,53.0042
2023-04-18T11:33:54.192Z,53.2086
2023-04-18T11:34:56.775Z,53.7079
2023-04-18T11:35:57.539Z,54.4171
2023-04-18T11:36:59.189Z,54.2733
2023-04-18T11:38:00.871Z,54.7465
2023-04-18T11:39:02.582Z,55.1074
2023-04-18T11:40:04.206Z,55.2588
2023-04-18T11:41:05.785Z,55.4957
2023-04-18T11:42:07.499Z,55.9114
2023-04-18T11:43:09.166Z,55.4574
2023-04-18T11:44:10.776Z,54.3559
2023-04-18T11:45:12.374Z,53.5853
2023-04-18T11:46:14.098Z,52.9823
2023-04-18T11:47:15.665Z,52.4905
2023-04-18T11:48:17.448Z,51.5773
2023-04-18T11:49:19.012Z,51.5341
2023-04-18T11:50:20.634Z,52.0699
2023-04-18T11:51:22.367Z,52.0638
2023-04-18T11:52:23.909Z,52.3009
2023-04-18T11:53:25.620Z,52.9124
2023-04-18T11:54:27.241Z,53.6494
2023-04-18T11:55:28.876Z,53.9898
2023-04-18T11:56:30.499Z,54.8612
2023-04-18T11:57:32.131Z,55.4450
2023-04-18T11:58:33.773Z,55.9848
2023-04-18T11:59:35.494Z,55.9397
2023-04-18T12:00:37.054Z,55.1381
2023-04-18T12:01:38.724Z,54.6822
2023-04-18T12:02:40.494Z,53.0012
2023-04-18T12:03:42.260Z,51.3655
2023-04-18T12:04:44.165Z,50.5553
2023-04-18T12:05:45.594Z,50.5633
2023-04-18T12:06:47.018Z,51.0074
2023-04-18T12:07:48.603Z,51.4767
2023-04-18T12:08:51.207Z,51.6014
2023-04-18T12:09:51.936Z,51.9782
2023-04-18T12:10:54.259Z,52.3153
2023-04-18T12:11:55.204Z,52.7283
2023-04-18T12:12:56.818Z,53.0704
2023-04-18T12:13:58.444Z,53.3167
2023-04-18T12:15:00.292Z,54.0095
2023-04-18T12:16:01.805Z,53.9341
2023-04-18T12:17:03.310Z,52.5051
2023-04-18T12:18:05.810Z,51.3269
2023-04-18T12:19:06.627Z,51.4131
2023-04-18T12:20:08.322Z,51.9577
2023-04-18T12:21:09.933Z,52.2793
2023-04-18T12:22:12.221Z,52.2396
2023-04-18T12:23:13.450Z,52.7029
2023-04-18T12:24:16.626Z,53.1677
2023-04-18T12:25:16.605Z,53.7168
2023-04-18T12:26:18.191Z,54.3326
2023-04-18T12:27:19.858Z,54.6577
2023-04-18T12:28:21.487Z,54.1634
2023-04-18T12:29:23.153Z,53.2582
2023-04-18T12:30:24.846Z,51.5518
2023-04-18T12:31:26.457Z,51.0272
2023-04-18T12:32:28.068Z,50.0811
2023-04-18T12:33:29.729Z,50.2090
2023-04-18T12:34:31.310Z,50.8769
2023-04-18T12:35:33.394Z,50.5488
2023-04-18T12:36:34.636Z,50.4620
2023-04-18T12:37:36.270Z,50.1836
2023-04-18T12:38:37.914Z,50.0843
2023-04-18T12:39:39.590Z,50.6882
2023-04-18T12:40:41.252Z,51.1885
2023-04-18T12:41:42.871Z,49.5671
2023-04-18T12:42:44.494Z,48.5198
2023-04-18T12:43:46.158Z,48.1925
2023-04-18T12:44:48.044Z,48.2974
2023-04-18T12:45:49.460Z,48.7570
2023-04-18T12:46:51.210Z,48.2116
2023-04-18T12:47:52.818Z,48.5259
2023-04-18T12:48:54.363Z,48.9095
2023-04-18T12:49:55.974Z,48.9002
2023-04-18T12:50:57.731Z,49.1234
2023-04-18T12:51:59.274Z,49.1691
2023-04-18T12:53:00.882Z,48.9388
2023-04-18T12:54:02.606Z,50.3652
2023-04-18T12:55:04.204Z,52.3688
2023-04-18T12:56:05.944Z,50.6074
2023-04-18T12:57:07.482Z,49.2090
2023-04-18T12:58:09.197Z,48.9152
2023-04-18T12:59:10.780Z,48.8285
2023-04-18T13:00:12.456Z,48.9578
2023-04-18T13:01:14.247Z,49.3940
2023-04-18T13:02:15.850Z,49.9352
2023-04-18T13:03:17.400Z,50.1576
2023-04-18T13:04:19.236Z,50.1945
2023-04-18T13:05:21.388Z,50.2539
2023-04-18T13:06:22.410Z,49.9548
2023-04-18T13:07:23.927Z,49.5401
2023-04-18T13:08:25.605Z,48.6913
2023-04-18T13:09:27.213Z,47.3831
2023-04-18T13:10:28.891Z,46.4077
2023-04-18T13:11:30.870Z,45.4757
2023-04-18T13:12:32.178Z,45.4403
2023-04-18T13:13:35.604Z,45.9919
2023-04-18T13:14:35.488Z,46.4440
2023-04-18T13:15:37.097Z,46.2022
2023-04-18T13:16:39.762Z,46.3661
2023-04-18T13:17:40.485Z,47.0751
2023-04-18T13:18:42.066Z,47.5087
2023-04-18T13:19:43.716Z,47.3079
2023-04-18T13:20:45.410Z,47.2460
2023-04-18T13:21:49.126Z,48.4130
2023-04-18T13:22:48.775Z,46.0122
2023-04-18T13:23:50.328Z,44.9092
2023-04-18T13:24:51.924Z,46.1852
2023-04-18T13:25:53.597Z,45.9122
2023-04-18T13:26:55.241Z,45.5266
2023-04-18T13:27:57.465Z,46.0737
2023-04-18T13:28:58.524Z,46.3751
2023-04-18T13:30:00.205Z,47.2360
2023-04-18T13:31:01.801Z,48.4394
2023-04-18T13:32:03.593Z,48.7755
2023-04-18T13:33:05.224Z,46.7694
2023-04-18T13:34:06.830Z,44.6338
2023-04-18T13:35:08.424Z,44.0833
2023-04-18T13:36:10.124Z,45.3882
2023-04-18T13:37:11.773Z,46.4366
2023-04-18T13:38:13.415Z,47.3236
2023-04-18T13:39:15.126Z,46.4293
2023-04-18T13:40:16.687Z,46.1149
2023-04-18T13:41:18.291Z,46.1107
2023-04-18T13:42:20.005Z,46.4892
2023-04-18T13:43:21.652Z,45.9710
2023-04-18T13:44:23.271Z,45.9848
2023-04-18T13:45:24.842Z,45.4102
2023-04-18T13:46:26.631Z,44.9375
2023-04-18T13:47:28.395Z,44.4801
2023-04-18T13:48:29.892Z,45.1535
2023-04-18T13:49:31.492Z,45.9588
2023-04-18T13:50:33.166Z,43.6149
2023-04-18T13:51:34.818Z,43.1138
2023-04-18T13:52:36.503Z,43.9904
2023-04-18T13:53:38.108Z,44.1637
2023-04-18T13:54:39.722Z,44.6304
2023-04-18T13:55:41.372Z,44.5674
2023-04-18T13:56:43.044Z,44.0120
2023-04-18T13:57:44.709Z,43.3008
2023-04-18T13:58:46.455Z,42.5365
2023-04-18T13:59:47.961Z,43.5956
2023-04-18T14:00:49.578Z,43.4931
2023-04-18T14:01:51.260Z,42.9558
2023-04-18T14:02:53.576Z,43.4914
2023-04-18T14:03:54.761Z,42.8004
2023-04-18T14:04:56.282Z,43.5793
2023-04-18T14:05:57.856Z,44.1155
2023-04-18T14:06:59.473Z,44.3754
2023-04-18T14:08:01.160Z,44.4040
2023-04-18T14:09:03.758Z,43.0543
2023-04-18T14:10:05.377Z,42.3627
2023-04-18T14:11:06.103Z,42.1452
2023-04-18T14:12:07.889Z,41.5822
2023-04-18T14:13:09.380Z,42.2472
2023-04-18T14:14:11.100Z,43.3102
2023-04-18T14:15:12.740Z,42.8464
2023-04-18T14:16:14.351Z,42.1654
2023-04-18T14:17:15.950Z,42.6326
2023-04-18T14:18:17.640Z,43.8792
2023-04-18T14:19:19.319Z,43.3262
2023-04-18T14:20:21.437Z,42.9447
2023-04-18T14:21:22.494Z,42.8457
2023-04-18T14:22:24.213Z,41.8543
2023-04-18T14:23:25.910Z,41.4087
2023-04-18T14:24:27.521Z,40.4253
2023-04-18T14:25:29.171Z,41.5182
2023-04-18T14:26:30.843Z,43.2225
2023-04-18T14:27:32.421Z,43.0770
2023-04-18T14:28:34.134Z,43.6130
2023-04-18T14:29:36.364Z,42.8767
2023-04-18T14:30:37.456Z,43.7128
2023-04-18T14:31:39.104Z,45.7542
2023-04-18T14:32:40.806Z,46.3490
2023-04-18T14:33:42.317Z,46.6266
2023-04-18T14:34:44.087Z,46.3563
2023-04-18T14:35:45.707Z,45.9167
2023-04-18T14:36:47.278Z,44.4785
2023-04-18T14:37:48.924Z,45.1578
2023-04-18T14:38:50.646Z,45.0065
2023-04-18T14:39:52.300Z,45.3843
2023-04-18T14:40:54.010Z,45.8306
2023-04-18T14:41:55.504Z,45.8541
2023-04-18T14:42:57.204Z,45.2620
2023-04-18T14:43:58.801Z,44.5469
2023-04-18T14:45:00.552Z,44.6475
2023-04-18T14:46:02.174Z,44.0175
2023-04-18T14:47:03.873Z,43.5317
2023-04-18T14:48:06.333Z,43.1585
2023-04-18T14:49:07.061Z,42.3942
2023-04-18T14:50:08.812Z,41.8888
2023-04-18T14:51:10.416Z,41.8861
2023-04-18T14:52:12.068Z,41.5642
2023-04-18T14:53:13.656Z,41.3278
2023-04-18T14:54:15.356Z,41.4392
2023-04-18T14:55:16.991Z,41.5060
2023-04-18T14:56:18.739Z,42.2511
2023-04-18T14:57:20.240Z,42.7064
2023-04-18T14:58:21.920Z,42.2429
2023-04-18T14:59:23.535Z,41.2481
2023-04-18T15:00:25.205Z,41.8584
2023-04-18T15:01:26.921Z,41.4932
2023-04-18T15:02:28.578Z,41.5209
2023-04-18T15:03:31.043Z,42.2402
2023-04-18T15:04:31.906Z,42.7547
2023-04-18T15:05:33.501Z,44.2040
2023-04-18T15:06:35.527Z,44.6000
2023-04-18T15:07:36.737Z,43.7006
2023-04-18T15:08:38.388Z,43.4717
2023-04-18T15:09:40.109Z,45.3951
2023-04-18T15:10:41.720Z,45.7461
2023-04-18T15:11:43.610Z,46.3360
2023-04-18T15:12:44.963Z,44.8599
2023-04-18T15:13:46.681Z,44.1655
2023-04-18T15:14:48.248Z,44.6456
2023-04-18T15:15:50.482Z,44.6872
2023-04-18T15:16:51.687Z,45.6510
2023-04-18T15:17:53.314Z,45.4423
2023-04-18T15:18:54.898Z,44.6329
2023-04-18T15:19:56.495Z,43.8721
2023-04-18T15:20:58.214Z,44.0518
2023-04-18T15:22:00.556Z,43.4954
2023-04-18T15:23:01.493Z,42.8849
2023-04-18T15:24:03.099Z,43.0988
2023-04-18T15:25:04.821Z,43.6130
2023-04-18T15:26:06.485Z,43.8958
2023-04-18T15:27:08.116Z,44.0549
2023-04-18T15:28:09.713Z,45.4570
2023-04-18T15:29:11.385Z,46.5049
2023-04-18T15:30:13.061Z,46.2421
2023-04-18T15:31:14.774Z,46.4725
2023-04-18T15:32:16.446Z,47.0782
2023-04-18T15:33:17.998Z,46.6887
2023-04-18T15:34:19.675Z,44.5668
2023-04-18T15:35:21.900Z,44.7916
2023-04-18T15:36:23.037Z,46.7204
2023-04-18T15:37:24.659Z,46.2292
2023-04-18T15:38:26.228Z,46.0124
2023-04-18T15:39:27.831Z,45.8538
2023-04-18T15:40:29.578Z,46.0683
2023-04-18T15:41:31.220Z,46.5644
2023-04-18T15:42:32.966Z,46.6868
2023-04-18T15:43:34.528Z,47.2411
2023-04-18T15:44:36.176Z,47.4488
2023-04-18T15:45:37.858Z,47.8840
2023-04-18T15:46:41.410Z,48.4754
2023-04-18T15:47:42.101Z,48.4639
2023-04-18T15:48:42.776Z,48.8522
2023-04-18T15:49:44.473Z,49.6397
2023-04-18T15:50:46.041Z,49.8702
2023-04-18T15:51:47.798Z,50.2103
2023-04-18T15:52:49.411Z,50.5784
2023-04-18T15:53:51.008Z,51.3421
2023-04-18T15:54:52.604Z,51.5596
2023-04-18T15:55:54.363Z,51.8088
2023-04-18T15:56:55.925Z,51.9030
2023-04-18T15:57:57.583Z,52.4848
2023-04-18T15:58:59.266Z,52.1313
2023-04-18T16:00:00.941Z,51.7016
2023-04-18T16:01:02.562Z,50.1546
2023-04-18T16:02:05.081Z,48.1297
2023-04-18T16:03:05.957Z,48.2288
2023-04-18T16:04:07.619Z,49.0779
2023-04-18T16:05:09.908Z,49.1302
2023-04-18T16:06:10.778Z,49.0432
2023-04-18T16:07:12.444Z,49.4644
2023-04-18T16:08:14.066Z,49.7120
2023-04-18T16:09:15.709Z,50.0482
2023-04-18T16:10:17.347Z,50.2956
2023-04-18T16:11:18.970Z,50.5346
2023-04-18T16:12:20.748Z,50.6788
2023-04-18T16:13:22.284Z,50.8693
2023-04-18T16:14:23.947Z,51.3357
2023-04-18T16:15:25.528Z,51.6822
2023-04-18T16:16:27.211Z,52.0321
2023-04-18T16:17:28.997Z,52.3419
2023-04-18T16:18:30.534Z,52.4239
2023-04-18T16:19:32.943Z,52.9367
2023-04-18T16:20:33.833Z,53.2965
2023-04-18T16:21:35.416Z,53.5096
2023-04-18T16:22:37.104Z,53.8774
2023-04-18T16:23:38.712Z,54.0955
2023-04-18T16:24:42.011Z,54.0992
2023-04-18T16:25:41.998Z,54.4707
2023-04-18T16:26:43.596Z,53.8939
2023-04-18T16:27:45.298Z,52.8961
2023-04-18T16:28:46.874Z,52.3565
2023-04-18T16:29:48.502Z,51.4610
2023-04-18T16:30:50.181Z,51.3192
2023-04-18T16:31:52.067Z,50.9376
2023-04-18T16:32:54.159Z,51.3928
2023-04-18T16:33:55.345Z,51.9724
2023-04-18T16:34:57.885Z,53.4790
2023-04-18T16:35:58.509Z,52.8735
2023-04-18T16:37:01.177Z,52.6736
2023-04-18T16:38:03.664Z,53.1471
2023-04-18T16:39:08.189Z,52.9020
2023-04-18T16:40:09.878Z,52.8399
2023-04-18T16:41:11.561Z,53.0068
2023-04-18T16:42:15.653Z,53.3484
2023-04-18T16:43:14.776Z,53.5303
2023-04-18T16:44:16.452Z,53.7303
2023-04-18T16:45:17.962Z,53.9828
2023-04-18T16:46:19.723Z,54.0926
2023-04-18T16:47:21.277Z,54.3002
2023-04-18T16:48:22.983Z,54.3247
2023-04-18T16:49:24.590Z,54.6219
2023-04-18T16:50:26.273Z,54.6886
2023-04-18T16:51:27.885Z,54.6420
2023-04-18T16:52:29.543Z,55.8053
2023-04-18T16:53:31.518Z,57.3090
2023-04-18T16:54:32.836Z,55.8962
2023-04-18T16:55:34.470Z,55.1294
2023-04-18T16:56:36.160Z,53.8296
2023-04-18T16:57:37.834Z,52.3528
2023-04-18T16:58:39.380Z,51.7949
2023-04-18T16:59:40.997Z,50.1823
2023-04-18T17:00:42.653Z,48.9139
2023-04-18T17:01:44.329Z,48.3448
2023-04-18T17:02:46.007Z,48.3073
2023-04-18T17:03:47.704Z,48.2008
2023-04-18T17:04:49.307Z,48.3227
2023-04-18T17:05:50.817Z,48.4643
2023-04-18T17:06:52.552Z,48.5618
2023-04-18T17:07:54.107Z,48.9988
2023-04-18T17:08:55.960Z,49.1328
2023-04-18T17:09:57.484Z,49.3915
2023-04-18T17:10:59.191Z,49.7468
2023-04-18T17:12:00.785Z,49.9150
2023-04-18T17:13:02.694Z,50.1955
2023-04-18T17:14:04.145Z,50.8507
2023-04-18T17:15:06.026Z,51.2824
2023-04-18T17:16:07.429Z,51.2441
2023-04-18T17:17:09.051Z,52.1699
2023-04-18T17:18:10.796Z,52.3173
2023-04-18T17:19:12.526Z,52.0343
2023-04-18T17:20:14.983Z,52.3939
2023-04-18T17:21:15.663Z,53.5537
2023-04-18T17:22:17.277Z,53.0809
2023-04-18T17:23:18.977Z,54.2239
2023-04-18T17:24:20.648Z,53.9766
2023-04-18T17:25:22.481Z,53.8659
2023-04-18T17:26:23.917Z,54.4171
2023-04-18T17:27:25.571Z,54.1264
2023-04-18T17:28:27.217Z,54.0490
2023-04-18T17:29:28.879Z,54.5677
2023-04-18T17:30:30.970Z,54.8759
2023-04-18T17:31:32.262Z,54.5445
2023-04-18T17:32:33.908Z,54.6004
2023-04-18T17:33:36.406Z,55.0200
2023-04-18T17:34:37.165Z,55.4162
2023-04-18T17:35:38.797Z,55.3149
2023-04-18T17:36:40.416Z,55.4852
2023-04-18T17:37:42.106Z,55.5368
2023-04-18T17:38:43.764Z,55.6831
2023-04-18T17:39:45.341Z,55.8908
2023-04-18T17:40:47.486Z,56.1403
2023-04-18T17:41:48.573Z,56.2744
2023-04-18T17:42:50.327Z,56.6129
2023-04-18T17:43:51.946Z,57.3205
2023-04-18T17:44:53.651Z,57.6475
2023-04-18T17:45:55.318Z,57.5094
2023-04-18T17:46:56.978Z,58.2112
2023-04-18T17:47:58.793Z,58.6625
2023-04-18T17:49:00.553Z,58.3292
2023-04-18T17:50:02.024Z,58.2173
2023-04-18T17:51:03.685Z,58.4788
2023-04-18T17:52:05.645Z,58.7502
2023-04-18T17:53:06.936Z,59.1737
2023-04-18T17:54:08.686Z,59.4485
2023-04-18T17:55:10.358Z,59.4739
2023-04-18T17:56:12.102Z,59.5333
2023-04-18T17:57:13.513Z,59.9584
2023-04-18T17:58:15.291Z,59.8551
2023-04-18T17:59:16.970Z,60.0719
2023-04-18T18:00:18.534Z,60.3068
2023-04-18T18:01:20.182Z,60.3516
2023-04-18T18:02:23.243Z,60.3965
2023-04-18T18:03:23.417Z,60.2030
2023-04-18T18:04:28.180Z,60.5154
2023-04-18T18:05:26.684Z,60.5706
2023-04-18T18:06:28.367Z,60.5877
2023-04-18T18:07:29.977Z,60.6523
2023-04-18T18:08:31.618Z,60.7504
2023-04-18T18:09:33.198Z,60.8448
2023-04-18T18:10:34.954Z,61.0397
2023-04-18T18:11:36.658Z,61.1193
2023-04-18T18:12:38.204Z,61.2025
2023-04-18T18:13:39.782Z,61.3939
2023-04-18T18:14:41.505Z,61.5351
2023-04-18T18:15:43.216Z,61.5244
2023-04-18T18:16:44.866Z,61.6484
2023-04-18T18:17:46.494Z,61.5990
2023-04-18T18:18:48.074Z,61.6746
2023-04-18T18:19:49.734Z,61.7299
2023-04-18T18:20:51.370Z,61.9622
2023-04-18T18:21:53.089Z,62.1794
2023-04-18T18:22:54.662Z,62.3023
2023-04-18T18:23:56.324Z,62.1517
2023-04-18T18:24:57.969Z,62.2469
2023-04-18T18:25:59.660Z,62.5013
2023-04-18T18:27:01.279Z,62.7035
2023-04-18T18:28:02.903Z,62.8471
2023-04-18T18:29:04.511Z,62.8826
2023-04-18T18:30:06.211Z,62.9552
2023-04-18T18:31:07.908Z,62.9693
2023-04-18T18:32:09.523Z,63.3453
2023-04-18T18:33:11.983Z,63.4473
2023-04-18T18:34:12.771Z,63.1274
2023-04-18T18:35:14.462Z,63.3066
2023-04-18T18:36:16.142Z,63.3324
2023-04-18T18:37:17.704Z,63.3027
2023-04-18T18:38:19.359Z,63.2403
2023-04-18T18:39:21.094Z,63.4719
2023-04-18T18:40:22.682Z,63.3612
2023-04-18T18:41:24.646Z,63.5313
2023-04-18T18:42:25.968Z,63.3854
2023-04-18T18:43:27.593Z,63.4814
2023-04-18T18:44:29.204Z,63.7315
2023-04-18T18:45:30.887Z,63.7915
2023-04-18T18:46:32.685Z,63.7812
2023-04-18T18:47:34.922Z,63.9098
2023-04-18T18:48:35.816Z,63.8571
2023-04-18T18:49:37.483Z,63.7365
2023-04-18T18:50:39.133Z,64.0676
2023-04-18T18:51:40.853Z,64.0408
2023-04-18T18:52:42.435Z,63.7266
2023-04-18T18:53:45.160Z,63.8425
2023-04-18T18:54:45.716Z,64.1220
2023-04-18T18:55:47.290Z,64.0389
2023-04-18T18:56:49.024Z,64.1402
2023-04-18T18:57:50.694Z,63.9841
2023-04-18T18:58:52.439Z,63.9974
2023-04-18T18:59:55.721Z,64.2396
2023-04-18T19:00:55.575Z,64.0163
2023-04-18T19:01:57.292Z,64.3532
2023-04-18T19:02:59.713Z,64.3942
2023-04-18T19:04:00.710Z,64.3774
2023-04-18T19:05:02.317Z,64.3590
2023-04-18T19:06:03.728Z,64.2536
2023-04-18T19:07:05.449Z,64.2776
2023-04-18T19:08:07.197Z,64.2936
2023-04-18T19:09:08.757Z,64.3589
2023-04-18T19:10:10.370Z,64.2948
2023-04-18T19:11:12.016Z,64.4038
2023-04-18T19:12:13.738Z,64.3694
2023-04-18T19:13:15.397Z,64.2900
2023-04-18T19:14:17.019Z,64.0857
2023-04-18T19:15:18.567Z,64.3787
2023-04-18T19:16:20.347Z,64.6750
2023-04-18T19:17:22.037Z,64.4031
2023-04-18T19:18:23.631Z,64.4877
2023-04-18T19:19:25.136Z,64.4217
2023-04-18T19:20:28.721Z,64.5412
2023-04-18T19:21:28.513Z,64.6293
2023-04-18T19:22:30.230Z,64.6747
2023-04-18T19:23:32.096Z,64.3734
2023-04-18T19:24:33.448Z,64.3967
2023-04-18T19:25:35.048Z,64.4951
2023-04-18T19:26:36.727Z,64.2083
2023-04-18T19:27:38.414Z,64.6628
2023-04-18T19:28:40.156Z,64.5450
2023-04-18T19:29:41.679Z,64.7021
2023-04-18T19:30:43.314Z,64.5629
2023-04-18T19:31:44.942Z,64.4059
2023-04-18T19:32:46.695Z,64.3773
2023-04-18T19:33:48.327Z,64.4468
2023-04-18T19:34:49.905Z,64.8288
2023-04-18T19:35:51.610Z,65.0215
2023-04-18T19:36:53.237Z,64.4102
2023-04-18T19:37:54.911Z,64.3458
2023-04-18T19:38:56.611Z,64.3267
2023-04-18T19:39:58.216Z,64.3143
2023-04-18T19:40:59.803Z,64.2812
2023-04-18T19:42:01.400Z,64.3766
2023-04-18T19:43:03.619Z,64.3086
2023-04-18T19:44:04.773Z,64.6241
2023-04-18T19:45:06.432Z,64.3730
2023-04-18T19:46:08.199Z,64.6625
2023-04-18T19:47:09.717Z,65.0726
2023-04-18T19:48:11.404Z,64.7481
2023-04-18T19:49:13.308Z,64.7315
2023-04-18T19:50:14.723Z,64.6473
2023-04-18T19:51:16.272Z,64.6038
2023-04-18T19:52:18.007Z,64.6402
2023-04-18T19:53:20.301Z,65.0690
2023-04-18T19:54:21.972Z,65.0493
2023-04-18T19:55:23.024Z,65.1580
2023-04-18T19:56:24.532Z,65.0394
2023-04-18T19:57:26.256Z,65.1723
2023-04-18T19:58:27.819Z,64.9965
2023-04-18T19:59:29.515Z,65.0348
2023-04-18T20:00:31.134Z,64.9161
2023-04-18T20:01:32.854Z,64.8346
2023-04-18T20:02:34.640Z,64.6513
2023-04-18T20:03:36.276Z,64.9493
2023-04-18T20:04:37.985Z,64.6798
2023-04-18T20:05:39.409Z,64.5906
2023-04-18T20:06:41.009Z,64.7109
2023-04-18T20:07:42.676Z,64.8230
2023-04-18T20:08:44.326Z,64.7601
2023-04-18T20:09:45.957Z,65.3763
2023-04-18T20:10:47.601Z,64.9577
2023-04-18T20:11:49.261Z,65.3321
2023-04-18T20:12:50.843Z,65.6947
2023-04-18T20:13:52.598Z,66.1109
2023-04-18T20:14:54.175Z,65.7154
2023-04-18T20:15:55.834Z,66.2834
2023-04-18T20:16:57.568Z,65.7229
2023-04-18T20:17:59.256Z,65.8859
2023-04-18T20:19:00.803Z,65.3354
2023-04-18T20:20:02.380Z,65.5347
2023-04-18T20:21:04.087Z,65.6212
2023-04-18T20:22:05.697Z,65.6181
2023-04-18T20:23:07.309Z,65.5974
2023-04-18T20:24:09.026Z,65.5994
2023-04-18T20:25:10.653Z,66.1082
2023-04-18T20:26:13.094Z,66.2523
2023-04-18T20:27:13.890Z,66.0554
2023-04-18T20:28:15.581Z,65.9667
2023-04-18T20:29:17.285Z,65.4312
2023-04-18T20:30:18.856Z,65.2690
2023-04-18T20:31:20.574Z,65.2931
2023-04-18T20:32:22.139Z,66.2847
2023-04-18T20:33:23.825Z,66.8407
2023-04-18T20:34:25.506Z,66.6317
2023-04-18T20:35:27.163Z,65.9119
2023-04-18T20:36:28.777Z,65.2596
2023-04-18T20:37:30.445Z,65.9517
2023-04-18T20:38:32.092Z,66.8559
2023-04-18T20:39:33.776Z,65.7972
2023-04-18T20:40:35.354Z,66.1689
2023-04-18T20:41:37.022Z,66.3152
2023-04-18T20:42:38.637Z,65.7674
2023-04-18T20:43:40.370Z,66.3478
2023-04-18T20:44:42.074Z,65.8363
2023-04-18T20:45:43.650Z,65.9065
2023-04-18T20:46:45.274Z,66.4530
2023-04-18T20:47:46.957Z,66.4857
2023-04-18T20:48:48.510Z,66.8299
2023-04-18T20:49:50.165Z,67.3186
2023-04-18T20:50:51.947Z,66.6620
2023-04-18T20:51:53.424Z,66.2003
2023-04-18T20:52:55.162Z,65.9855
2023-04-18T20:53:56.716Z,66.7007
2023-04-18T20:54:58.477Z,66.8916
2023-04-18T20:56:00.086Z,66.8395
2023-04-18T20:57:01.719Z,67.0209
2023-04-18T20:58:03.335Z,67.5049
2023-04-18T20:59:05.068Z,67.1805
2023-04-18T21:00:06.685Z,67.7342
2023-04-18T21:01:08.356Z,66.8763
2023-04-18T21:02:10.089Z,66.6611
2023-04-18T21:03:11.750Z,66.5861
2023-04-18T21:04:13.680Z,66.0883
2023-04-18T21:05:14.971Z,66.3871
2023-04-18T21:06:16.506Z,66.7466
2023-04-18T21:07:18.199Z,66.0456
2023-04-18T21:08:19.820Z,65.8200
2023-04-18T21:09:21.488Z,65.8595
2023-04-18T21:10:23.161Z,66.2487
2023-04-18T21:11:24.790Z,66.2051
2023-04-18T21:12:26.351Z,65.2386
2023-04-18T21:13:28.083Z,65.2015
2023-04-18T21:14:29.681Z,65.8129
2023-04-18T21:15:31.401Z,66.3898
2023-04-18T21:16:33.141Z,65.7029
2023-04-18T21:17:34.692Z,65.4034
2023-04-18T21:18:36.541Z,65.7569
2023-04-18T21:19:37.977Z,65.5475
2023-04-18T21:20:39.672Z,65.5806
2023-04-18T21:21:41.259Z,65.8764
2023-04-18T21:22:42.911Z,65.4533
2023-04-18T21:23:44.542Z,64.8189
2023-04-18T21:24:46.190Z,64.7010
2023-04-18T21:25:47.903Z,64.9293
2023-04-18T21:26:49.441Z,64.9723
2023-04-18T21:27:51.149Z,65.5540
2023-04-18T21:28:52.755Z,65.3890
2023-04-18T21:29:54.440Z,64.8727
2023-04-18T21:30:56.164Z,65.0757
2023-04-18T21:31:57.785Z,66.0807
2023-04-18T21:32:59.377Z,65.8013
2023-04-18T21:34:01.068Z,65.8864
2023-04-18T21:35:03.605Z,65.6109
2023-04-18T21:36:04.353Z,65.4017
2023-04-18T21:37:05.962Z,65.9622
2023-04-18T21:38:07.538Z,65.2641
2023-04-18T21:39:09.241Z,65.0598
2023-04-18T21:40:10.952Z,64.9395
2023-04-18T21:41:12.612Z,64.5734
2023-04-18T21:42:14.110Z,64.7055
2023-04-18T21:43:15.841Z,64.9899
2023-04-18T21:44:17.477Z,64.8805
2023-04-18T21:45:19.194Z,64.7812
2023-04-18T21:46:24.220Z,65.1449
2023-04-18T21:47:22.402Z,64.8641
2023-04-18T21:48:24.013Z,64.6084
2023-04-18T21:49:25.643Z,64.3786
2023-04-18T21:50:27.306Z,64.5720
2023-04-18T21:51:29.113Z,64.4440
2023-04-18T21:52:30.597Z,64.4859
2023-04-18T21:53:32.259Z,64.3881
2023-04-18T21:54:33.881Z,63.8913
2023-04-18T21:55:35.561Z,63.7896
2023-04-18T21:56:37.224Z,64.2370
2023-04-18T21:57:38.826Z,64.2278
2023-04-18T21:58:40.453Z,63.8074
2023-04-18T21:59:42.209Z,63.9233
2023-04-18T22:00:43.846Z,64.2295
2023-04-18T22:01:45.449Z,64.3211
2023-04-18T22:02:47.313Z,65.0305
2023-04-18T22:03:48.888Z,64.8143
2023-04-18T22:04:50.332Z,64.4348
2023-04-18T22:05:52.548Z,64.4010
2023-04-18T22:06:53.682Z,63.7513
2023-04-18T22:07:58.458Z,63.7728
2023-04-18T22:08:56.928Z,63.8637
2023-04-18T22:09:58.606Z,64.1298
2023-04-18T22:11:01.142Z,64.7374
2023-04-18T22:12:01.958Z,65.1681
2023-04-18T22:13:03.601Z,65.0162
2023-04-18T22:14:05.216Z,64.3235
2023-04-18T22:15:06.817Z,63.6937
2023-04-18T22:16:09.101Z,63.5281
2023-04-18T22:17:10.180Z,63.1650
2023-04-18T22:18:11.792Z,63.3033
2023-04-18T22:19:13.410Z,63.4259
2023-04-18T22:20:15.079Z,63.8828
2023-04-18T22:21:16.734Z,63.4849
2023-04-18T22:22:18.408Z,63.5727
2023-04-18T22:23:20.050Z,63.6811
2023-04-18T22:24:21.802Z,64.0083
2023-04-18T22:25:23.322Z,64.2456
2023-04-18T22:26:25.006Z,64.5662
2023-04-18T22:27:27.122Z,64.3404
2023-04-18T22:28:28.291Z,64.4734
2023-04-18T22:29:29.895Z,63.6185
2023-04-18T22:30:31.686Z,63.9071
2023-04-18T22:31:34.061Z,63.9187
2023-04-18T22:32:34.938Z,63.3739
2023-04-18T22:33:36.532Z,63.4969
2023-04-18T22:34:38.104Z,64.1769
2023-04-18T22:35:39.807Z,64.2429
2023-04-18T22:36:41.439Z,64.1677
2023-04-18T22:37:43.599Z,63.7715
2023-04-18T22:38:44.754Z,63.7628
2023-04-18T22:39:46.375Z,63.9279
2023-04-18T22:40:48.007Z,63.4350
2023-04-18T22:41:49.722Z,63.1284
2023-04-18T22:42:51.336Z,63.1310
2023-04-18T22:43:52.992Z,63.3305
2023-04-18T22:44:54.633Z,63.3275
2023-04-18T22:45:56.353Z,63.3296
2023-04-18T22:46:57.974Z,63.0396
2023-04-18T22:48:00.628Z,63.1845
2023-04-18T22:49:01.360Z,63.5980
2023-04-18T22:50:03.090Z,63.5275
2023-04-18T22:51:04.686Z,63.2973
2023-04-18T22:52:06.342Z,63.0721
2023-04-18T22:53:08.082Z,63.0412
2023-04-18T22:54:09.649Z,62.8979
2023-04-18T22:55:11.369Z,62.9657
2023-04-18T22:56:12.922Z,63.0870
2023-04-18T22:57:15.275Z,63.5105
2023-04-18T22:58:16.296Z,63.1721
2023-04-18T22:59:18.791Z,63.3446
2023-04-18T23:00:19.527Z,63.2719
2023-04-18T23:01:23.016Z,63.1796
2023-04-18T23:02:23.005Z,63.4458
2023-04-18T23:03:24.893Z,63.2305
2023-04-18T23:04:26.267Z,63.3315
2023-04-18T23:05:27.763Z,63.0823
2023-04-18T23:06:29.392Z,63.0795
2023-04-18T23:07:30.959Z,63.0937
2023-04-18T23:08:32.718Z,62.9580
2023-04-18T23:09:34.264Z,62.8663
2023-04-18T23:10:35.972Z,62.6298
2023-04-18T23:11:37.589Z,62.6820
2023-04-18T23:12:39.276Z,62.9028
2023-04-18T23:13:40.966Z,62.9277
2023-04-18T23:14:42.573Z,63.3881
2023-04-18T23:15:44.182Z,63.5741
2023-04-18T23:16:45.882Z,63.4955